sensor_id;sensor_type;location;lat;lon;timestamp;P1;durP1;ratioP1;P2;durP2;ratioP2
9904;SDS011;4991;43.566;27.820;2023-03-23T00:02:24;0.00;;;0.00;;
9904;SDS011;4991;43.566;27.820;2023-03-23T00:04:50;0.10;;;0.10;;
9904;SDS011;4991;43.566;27.820;2023-03-23T00:07:16;0.10;;;0.10;;
9904;SDS011;4991;43.566;27.820;2023-03-23T00:09:49;0.10;;;0.10;;
9904;SDS011;4991;43.566;27.820;2023-03-23T00:12:21;0.10;;;0.10;;
9904;SDS011;4991;43.566;27.820;2023-03-23T00:15:01;0.10;;;0.10;;
9904;SDS011;4991;43.566;27.820;2023-03-23T00:17:32;0.10;;;0.10;;
9904;SDS011;4991;43.566;27.820;2023-03-23T00:20:01;0.10;;;0.10;;
9904;SDS011;4991;43.566;27.820;2023-03-23T00:22:30;0.10;;;0.10;;
9904;SDS011;4991;43.566;27.820;2023-03-23T00:24:56;0.10;;;0.10;;
9904;SDS011;4991;43.566;27.820;2023-03-23T00:27:22;0.10;;;0.10;;
9904;SDS011;4991;43.566;27.820;2023-03-23T00:29:51;0.10;;;0.10;;
9904;SDS011;4991;43.566;27.820;2023-03-23T00:32:20;0.00;;;0.00;;
9904;SDS011;4991;43.566;27.820;2023-03-23T00:34:55;0.10;;;0.10;;
9904;SDS011;4991;43.566;27.820;2023-03-23T00:37:25;0.10;;;0.10;;
9904;SDS011;4991;43.566;27.820;2023-03-23T00:39:51;0.00;;;0.00;;
9904;SDS011;4991;43.566;27.820;2023-03-23T00:42:22;0.10;;;0.10;;
9904;SDS011;4991;43.566;27.820;2023-03-23T00:44:48;0.10;;;0.10;;
9904;SDS011;4991;43.566;27.820;2023-03-23T00:47:14;0.10;;;0.10;;
9904;SDS011;4991;43.566;27.820;2023-03-23T00:49:42;0.10;;;0.10;;
9904;SDS011;4991;43.566;27.820;2023-03-23T00:52:09;0.10;;;0.10;;
9904;SDS011;4991;43.566;27.820;2023-03-23T00:54:34;0.10;;;0.10;;
9904;SDS011;4991;43.566;27.820;2023-03-23T00:57:01;0.10;;;0.10;;
9904;SDS011;4991;43.566;27.820;2023-03-23T00:59:27;0.03;;;0.03;;
9904;SDS011;4991;43.566;27.820;2023-03-23T01:01:55;0.00;;;0.00;;
9904;SDS011;4991;43.566;27.820;2023-03-23T01:04:20;0.10;;;0.10;;
9904;SDS011;4991;43.566;27.820;2023-03-23T01:06:48;0.10;;;0.10;;
9904;SDS011;4991;43.566;27.820;2023-03-23T01:09:15;0.10;;;0.10;;
9904;SDS011;4991;43.566;27.820;2023-03-23T01:11:45;0.10;;;0.10;;
9904;SDS011;4991;43.566;27.820;2023-03-23T01:14:12;0.07;;;0.07;;
9904;SDS011;4991;43.566;27.820;2023-03-23T01:16:40;0.13;;;0.13;;
9904;SDS011;4991;43.566;27.820;2023-03-23T01:19:05;0.00;;;0.00;;
9904;SDS011;4991;43.566;27.820;2023-03-23T01:21:31;0.10;;;0.10;;
9904;SDS011;4991;43.566;27.820;2023-03-23T01:23:56;0.10;;;0.10;;
9904;SDS011;4991;43.566;27.820;2023-03-23T01:26:23;0.03;;;0.03;;
9904;SDS011;4991;43.566;27.820;2023-03-23T01:28:51;0.10;;;0.10;;
9904;SDS011;4991;43.566;27.820;2023-03-23T01:31:18;0.13;;;0.13;;
9904;SDS011;4991;43.566;27.820;2023-03-23T01:33:45;0.00;;;0.00;;
9904;SDS011;4991;43.566;27.820;2023-03-23T01:36:13;0.10;;;0.10;;
9904;SDS011;4991;43.566;27.820;2023-03-23T01:38:41;0.10;;;0.10;;
9904;SDS011;4991;43.566;27.820;2023-03-23T01:41:09;0.10;;;0.10;;
9904;SDS011;4991;43.566;27.820;2023-03-23T01:43:36;0.10;;;0.10;;
9904;SDS011;4991;43.566;27.820;2023-03-23T01:46:18;0.10;;;0.10;;
9904;SDS011;4991;43.566;27.820;2023-03-23T01:48:43;0.10;;;0.10;;
9904;SDS011;4991;43.566;27.820;2023-03-23T01:51:12;0.03;;;0.03;;
9904;SDS011;4991;43.566;27.820;2023-03-23T01:53:43;0.10;;;0.10;;
9904;SDS011;4991;43.566;27.820;2023-03-23T01:56:12;0.10;;;0.10;;
9904;SDS011;4991;43.566;27.820;2023-03-23T01:58:41;0.10;;;0.10;;
9904;SDS011;4991;43.566;27.820;2023-03-23T02:01:10;0.10;;;0.10;;
9904;SDS011;4991;43.566;27.820;2023-03-23T02:03:39;0.10;;;0.10;;
9904;SDS011;4991;43.566;27.820;2023-03-23T02:06:07;0.10;;;0.10;;
9904;SDS011;4991;43.566;27.820;2023-03-23T02:08:33;0.10;;;0.10;;
9904;SDS011;4991;43.566;27.820;2023-03-23T02:11:00;0.00;;;0.00;;
9904;SDS011;4991;43.566;27.820;2023-03-23T02:13:26;0.00;;;0.00;;
9904;SDS011;4991;43.566;27.820;2023-03-23T02:15:59;0.10;;;0.10;;
9904;SDS011;4991;43.566;27.820;2023-03-23T02:24:40;0.00;;;0.00;;
9904;SDS011;4991;43.566;27.820;2023-03-23T02:27:16;0.10;;;0.10;;
9904;SDS011;4991;43.566;27.820;2023-03-23T02:35:58;0.10;;;0.10;;
9904;SDS011;4991;43.566;27.820;2023-03-23T02:38:30;0.10;;;0.10;;
9904;SDS011;4991;43.566;27.820;2023-03-23T02:41:00;0.10;;;0.10;;
9904;SDS011;4991;43.566;27.820;2023-03-23T02:43:30;0.10;;;0.10;;
9904;SDS011;4991;43.566;27.820;2023-03-23T02:45:59;0.10;;;0.10;;
9904;SDS011;4991;43.566;27.820;2023-03-23T02:48:28;0.10;;;0.10;;
9904;SDS011;4991;43.566;27.820;2023-03-23T02:50:55;0.10;;;0.10;;
9904;SDS011;4991;43.566;27.820;2023-03-23T02:53:23;0.10;;;0.10;;
9904;SDS011;4991;43.566;27.820;2023-03-23T02:55:50;0.00;;;0.00;;
9904;SDS011;4991;43.566;27.820;2023-03-23T02:58:20;0.10;;;0.10;;
9904;SDS011;4991;43.566;27.820;2023-03-23T03:00:48;0.10;;;0.10;;
9904;SDS011;4991;43.566;27.820;2023-03-23T03:03:16;0.80;;;0.80;;
9904;SDS011;4991;43.566;27.820;2023-03-23T03:08:27;0.00;;;0.00;;
9904;SDS011;4991;43.566;27.820;2023-03-23T03:11:14;0.00;;;0.00;;
9904;SDS011;4991;43.566;27.820;2023-03-23T03:21:25;0.00;;;0.00;;
9904;SDS011;4991;43.566;27.820;2023-03-23T03:23:55;0.10;;;0.10;;
9904;SDS011;4991;43.566;27.820;2023-03-23T03:26:25;0.10;;;0.10;;
9904;SDS011;4991;43.566;27.820;2023-03-23T03:28:53;0.10;;;0.10;;
9904;SDS011;4991;43.566;27.820;2023-03-23T03:31:30;16.33;;;2.73;;
9904;SDS011;4991;43.566;27.820;2023-03-23T03:34:01;0.10;;;0.10;;
9904;SDS011;4991;43.566;27.820;2023-03-23T03:36:31;0.20;;;0.20;;
9904;SDS011;4991;43.566;27.820;2023-03-23T03:39:07;0.10;;;0.10;;
9904;SDS011;4991;43.566;27.820;2023-03-23T03:41:35;0.00;;;0.00;;
9904;SDS011;4991;43.566;27.820;2023-03-23T03:44:01;0.10;;;0.10;;
9904;SDS011;4991;43.566;27.820;2023-03-23T03:46:28;0.10;;;0.10;;
9904;SDS011;4991;43.566;27.820;2023-03-23T03:48:56;0.10;;;0.10;;
9904;SDS011;4991;43.566;27.820;2023-03-23T03:51:23;0.10;;;0.10;;
9904;SDS011;4991;43.566;27.820;2023-03-23T03:53:50;0.10;;;0.10;;
9904;SDS011;4991;43.566;27.820;2023-03-23T03:56:15;0.03;;;0.03;;
9904;SDS011;4991;43.566;27.820;2023-03-23T03:58:41;0.47;;;0.47;;
9904;SDS011;4991;43.566;27.820;2023-03-23T04:01:08;0.10;;;0.10;;
9904;SDS011;4991;43.566;27.820;2023-03-23T04:03:37;0.00;;;0.00;;
9904;SDS011;4991;43.566;27.820;2023-03-23T04:06:03;0.10;;;0.10;;
9904;SDS011;4991;43.566;27.820;2023-03-23T04:08:29;0.10;;;0.10;;
9904;SDS011;4991;43.566;27.820;2023-03-23T04:10:57;0.10;;;0.10;;
9904;SDS011;4991;43.566;27.820;2023-03-23T04:13:22;0.10;;;0.10;;
9904;SDS011;4991;43.566;27.820;2023-03-23T04:15:48;0.00;;;0.00;;
9904;SDS011;4991;43.566;27.820;2023-03-23T04:18:15;0.10;;;0.10;;
9904;SDS011;4991;43.566;27.820;2023-03-23T04:20:43;0.10;;;0.10;;
9904;SDS011;4991;43.566;27.820;2023-03-23T04:23:15;0.10;;;0.10;;
9904;SDS011;4991;43.566;27.820;2023-03-23T04:25:48;0.10;;;0.10;;
9904;SDS011;4991;43.566;27.820;2023-03-23T04:28:15;0.03;;;0.03;;
9904;SDS011;4991;43.566;27.820;2023-03-23T04:30:43;0.10;;;0.10;;
9904;SDS011;4991;43.566;27.820;2023-03-23T04:33:10;0.03;;;0.03;;
9904;SDS011;4991;43.566;27.820;2023-03-23T04:35:40;0.10;;;0.10;;
9904;SDS011;4991;43.566;27.820;2023-03-23T04:38:07;0.03;;;0.03;;
9904;SDS011;4991;43.566;27.820;2023-03-23T04:40:37;0.20;;;0.20;;
9904;SDS011;4991;43.566;27.820;2023-03-23T04:43:04;0.10;;;0.10;;
9904;SDS011;4991;43.566;27.820;2023-03-23T04:45:31;0.03;;;0.03;;
9904;SDS011;4991;43.566;27.820;2023-03-23T04:47:58;0.10;;;0.10;;
9904;SDS011;4991;43.566;27.820;2023-03-23T04:50:26;0.10;;;0.10;;
9904;SDS011;4991;43.566;27.820;2023-03-23T04:52:56;0.10;;;0.10;;
9904;SDS011;4991;43.566;27.820;2023-03-23T04:55:24;0.00;;;0.00;;
9904;SDS011;4991;43.566;27.820;2023-03-23T04:57:51;0.50;;;0.50;;
9904;SDS011;4991;43.566;27.820;2023-03-23T05:00:17;0.10;;;0.10;;
9904;SDS011;4991;43.566;27.820;2023-03-23T05:02:44;0.10;;;0.10;;
9904;SDS011;4991;43.566;27.820;2023-03-23T05:05:12;0.10;;;0.10;;
9904;SDS011;4991;43.566;27.820;2023-03-23T05:07:39;0.10;;;0.10;;
9904;SDS011;4991;43.566;27.820;2023-03-23T05:10:10;0.20;;;0.20;;
9904;SDS011;4991;43.566;27.820;2023-03-23T05:12:37;0.10;;;0.10;;
9904;SDS011;4991;43.566;27.820;2023-03-23T05:15:03;0.10;;;0.10;;
9904;SDS011;4991;43.566;27.820;2023-03-23T05:17:29;0.10;;;0.10;;
9904;SDS011;4991;43.566;27.820;2023-03-23T05:19:55;0.10;;;0.10;;
9904;SDS011;4991;43.566;27.820;2023-03-23T05:22:22;0.20;;;0.20;;
9904;SDS011;4991;43.566;27.820;2023-03-23T05:24:51;0.00;;;0.00;;
9904;SDS011;4991;43.566;27.820;2023-03-23T05:27:17;1.37;;;1.27;;
9904;SDS011;4991;43.566;27.820;2023-03-23T05:29:44;2.63;;;2.53;;
9904;SDS011;4991;43.566;27.820;2023-03-23T05:32:13;0.00;;;0.00;;
9904;SDS011;4991;43.566;27.820;2023-03-23T05:34:40;0.10;;;0.10;;
9904;SDS011;4991;43.566;27.820;2023-03-23T05:37:06;0.10;;;0.10;;
9904;SDS011;4991;43.566;27.820;2023-03-23T05:39:32;0.37;;;0.37;;
9904;SDS011;4991;43.566;27.820;2023-03-23T05:41:57;0.00;;;0.00;;
9904;SDS011;4991;43.566;27.820;2023-03-23T05:44:23;0.10;;;0.10;;
9904;SDS011;4991;43.566;27.820;2023-03-23T05:46:49;0.03;;;0.03;;
9904;SDS011;4991;43.566;27.820;2023-03-23T05:49:15;0.10;;;0.10;;
9904;SDS011;4991;43.566;27.820;2023-03-23T05:51:42;0.10;;;0.10;;
9904;SDS011;4991;43.566;27.820;2023-03-23T05:54:09;0.10;;;0.10;;
9904;SDS011;4991;43.566;27.820;2023-03-23T05:56:36;0.10;;;0.10;;
9904;SDS011;4991;43.566;27.820;2023-03-23T05:59:02;0.10;;;0.10;;
9904;SDS011;4991;43.566;27.820;2023-03-23T06:01:28;0.10;;;0.10;;
9904;SDS011;4991;43.566;27.820;2023-03-23T06:03:54;0.10;;;0.10;;
9904;SDS011;4991;43.566;27.820;2023-03-23T06:06:23;0.10;;;0.10;;
9904;SDS011;4991;43.566;27.820;2023-03-23T06:08:50;0.00;;;0.00;;
9904;SDS011;4991;43.566;27.820;2023-03-23T06:11:15;0.10;;;0.10;;
9904;SDS011;4991;43.566;27.820;2023-03-23T06:13:41;0.10;;;0.10;;
9904;SDS011;4991;43.566;27.820;2023-03-23T06:16:07;0.10;;;0.10;;
9904;SDS011;4991;43.566;27.820;2023-03-23T06:18:33;0.10;;;0.10;;
9904;SDS011;4991;43.566;27.820;2023-03-23T06:21:02;0.00;;;0.00;;
9904;SDS011;4991;43.566;27.820;2023-03-23T06:23:29;0.10;;;0.10;;
9904;SDS011;4991;43.566;27.820;2023-03-23T06:25:55;0.10;;;0.10;;
9904;SDS011;4991;43.566;27.820;2023-03-23T06:28:24;0.10;;;0.10;;
9904;SDS011;4991;43.566;27.820;2023-03-23T06:30:50;0.10;;;0.10;;
9904;SDS011;4991;43.566;27.820;2023-03-23T06:33:16;0.10;;;0.10;;
9904;SDS011;4991;43.566;27.820;2023-03-23T06:35:43;0.00;;;0.00;;
9904;SDS011;4991;43.566;27.820;2023-03-23T06:38:09;0.20;;;0.20;;
9904;SDS011;4991;43.566;27.820;2023-03-23T06:40:35;0.10;;;0.10;;
9904;SDS011;4991;43.566;27.820;2023-03-23T06:43:01;0.10;;;0.10;;
9904;SDS011;4991;43.566;27.820;2023-03-23T06:45:27;0.00;;;0.00;;
9904;SDS011;4991;43.566;27.820;2023-03-23T06:47:53;0.10;;;0.10;;
9904;SDS011;4991;43.566;27.820;2023-03-23T06:50:18;0.10;;;0.10;;
9904;SDS011;4991;43.566;27.820;2023-03-23T06:52:47;0.10;;;0.10;;
9904;SDS011;4991;43.566;27.820;2023-03-23T06:55:15;0.10;;;0.10;;
9904;SDS011;4991;43.566;27.820;2023-03-23T06:57:42;0.10;;;0.10;;
9904;SDS011;4991;43.566;27.820;2023-03-23T07:00:09;0.10;;;0.10;;
9904;SDS011;4991;43.566;27.820;2023-03-23T07:02:41;0.10;;;0.10;;
9904;SDS011;4991;43.566;27.820;2023-03-23T07:05:08;0.10;;;0.10;;
9904;SDS011;4991;43.566;27.820;2023-03-23T07:07:36;2.10;;;2.00;;
9904;SDS011;4991;43.566;27.820;2023-03-23T07:10:04;0.10;;;0.10;;
9904;SDS011;4991;43.566;27.820;2023-03-23T07:12:31;0.10;;;0.10;;
9904;SDS011;4991;43.566;27.820;2023-03-23T07:14:58;0.10;;;0.10;;
9904;SDS011;4991;43.566;27.820;2023-03-23T07:17:24;0.10;;;0.10;;
9904;SDS011;4991;43.566;27.820;2023-03-23T07:19:50;0.10;;;0.10;;
9904;SDS011;4991;43.566;27.820;2023-03-23T07:22:16;0.13;;;0.13;;
9904;SDS011;4991;43.566;27.820;2023-03-23T07:24:42;0.10;;;0.10;;
9904;SDS011;4991;43.566;27.820;2023-03-23T07:27:08;0.10;;;0.10;;
9904;SDS011;4991;43.566;27.820;2023-03-23T07:29:34;0.10;;;0.10;;
9904;SDS011;4991;43.566;27.820;2023-03-23T07:32:03;0.10;;;0.10;;
9904;SDS011;4991;43.566;27.820;2023-03-23T07:34:30;0.10;;;0.10;;
9904;SDS011;4991;43.566;27.820;2023-03-23T07:36:57;0.10;;;0.10;;
9904;SDS011;4991;43.566;27.820;2023-03-23T07:39:23;0.10;;;0.10;;
9904;SDS011;4991;43.566;27.820;2023-03-23T07:41:50;0.10;;;0.10;;
9904;SDS011;4991;43.566;27.820;2023-03-23T07:44:16;0.10;;;0.10;;
9904;SDS011;4991;43.566;27.820;2023-03-23T07:46:42;0.10;;;0.10;;
9904;SDS011;4991;43.566;27.820;2023-03-23T07:49:08;0.10;;;0.10;;
9904;SDS011;4991;43.566;27.820;2023-03-23T07:51:35;0.17;;;0.17;;
9904;SDS011;4991;43.566;27.820;2023-03-23T07:54:03;0.10;;;0.10;;
9904;SDS011;4991;43.566;27.820;2023-03-23T07:56:30;0.10;;;0.10;;
9904;SDS011;4991;43.566;27.820;2023-03-23T07:58:56;0.10;;;0.10;;
9904;SDS011;4991;43.566;27.820;2023-03-23T08:01:21;0.10;;;0.10;;
9904;SDS011;4991;43.566;27.820;2023-03-23T08:03:49;0.10;;;0.10;;
9904;SDS011;4991;43.566;27.820;2023-03-23T08:06:15;0.10;;;0.10;;
9904;SDS011;4991;43.566;27.820;2023-03-23T08:08:41;0.10;;;0.10;;
9904;SDS011;4991;43.566;27.820;2023-03-23T08:11:06;0.20;;;0.20;;
9904;SDS011;4991;43.566;27.820;2023-03-23T08:13:32;0.10;;;0.10;;
9904;SDS011;4991;43.566;27.820;2023-03-23T08:16:00;0.10;;;0.10;;
9904;SDS011;4991;43.566;27.820;2023-03-23T08:18:29;0.10;;;0.10;;
9904;SDS011;4991;43.566;27.820;2023-03-23T08:20:55;0.10;;;0.10;;
9904;SDS011;4991;43.566;27.820;2023-03-23T08:23:21;0.10;;;0.10;;
9904;SDS011;4991;43.566;27.820;2023-03-23T08:25:47;0.10;;;0.10;;
9904;SDS011;4991;43.566;27.820;2023-03-23T08:28:14;9.60;;;8.60;;
9904;SDS011;4991;43.566;27.820;2023-03-23T08:30:40;0.10;;;0.10;;
9904;SDS011;4991;43.566;27.820;2023-03-23T08:33:06;0.10;;;0.10;;
9904;SDS011;4991;43.566;27.820;2023-03-23T08:35:33;0.20;;;0.20;;
9904;SDS011;4991;43.566;27.820;2023-03-23T08:37:58;0.57;;;0.57;;
9904;SDS011;4991;43.566;27.820;2023-03-23T08:40:24;0.10;;;0.10;;
9904;SDS011;4991;43.566;27.820;2023-03-23T08:42:51;0.10;;;0.10;;
9904;SDS011;4991;43.566;27.820;2023-03-23T08:45:19;0.10;;;0.10;;
9904;SDS011;4991;43.566;27.820;2023-03-23T08:47:46;0.20;;;0.20;;
9904;SDS011;4991;43.566;27.820;2023-03-23T08:50:17;0.10;;;0.10;;
9904;SDS011;4991;43.566;27.820;2023-03-23T08:52:46;0.10;;;0.10;;
9904;SDS011;4991;43.566;27.820;2023-03-23T08:55:12;0.20;;;0.20;;
9904;SDS011;4991;43.566;27.820;2023-03-23T08:57:38;0.10;;;0.10;;
9904;SDS011;4991;43.566;27.820;2023-03-23T09:00:04;0.10;;;0.10;;
9904;SDS011;4991;43.566;27.820;2023-03-23T09:02:40;0.10;;;0.10;;
9904;SDS011;4991;43.566;27.820;2023-03-23T09:05:07;0.10;;;0.10;;
9904;SDS011;4991;43.566;27.820;2023-03-23T09:07:35;0.50;;;0.50;;
9904;SDS011;4991;43.566;27.820;2023-03-23T09:10:02;0.10;;;0.10;;
9904;SDS011;4991;43.566;27.820;2023-03-23T09:12:27;0.10;;;0.10;;
9904;SDS011;4991;43.566;27.820;2023-03-23T09:14:54;0.20;;;0.20;;
9904;SDS011;4991;43.566;27.820;2023-03-23T09:17:20;0.17;;;0.17;;
9904;SDS011;4991;43.566;27.820;2023-03-23T09:19:46;0.20;;;0.20;;
9904;SDS011;4991;43.566;27.820;2023-03-23T09:22:11;0.10;;;0.10;;
9904;SDS011;4991;43.566;27.820;2023-03-23T09:24:37;0.20;;;0.20;;
9904;SDS011;4991;43.566;27.820;2023-03-23T09:27:03;0.10;;;0.10;;
9904;SDS011;4991;43.566;27.820;2023-03-23T09:29:29;0.10;;;0.10;;
9904;SDS011;4991;43.566;27.820;2023-03-23T09:31:55;0.30;;;0.30;;
9904;SDS011;4991;43.566;27.820;2023-03-23T09:34:21;0.20;;;0.20;;
9904;SDS011;4991;43.566;27.820;2023-03-23T09:36:47;0.20;;;0.20;;
9904;SDS011;4991;43.566;27.820;2023-03-23T09:39:14;0.20;;;0.20;;
9904;SDS011;4991;43.566;27.820;2023-03-23T09:50:02;0.20;;;0.20;;
9904;SDS011;4991;43.566;27.820;2023-03-23T09:55:19;0.10;;;0.10;;
9904;SDS011;4991;43.566;27.820;2023-03-23T10:00:35;0.20;;;0.20;;
9904;SDS011;4991;43.566;27.820;2023-03-23T10:03:09;0.20;;;0.20;;
9904;SDS011;4991;43.566;27.820;2023-03-23T10:05:41;0.20;;;0.20;;
9904;SDS011;4991;43.566;27.820;2023-03-23T10:08:20;0.20;;;0.20;;
9904;SDS011;4991;43.566;27.820;2023-03-23T10:13:42;0.20;;;0.20;;
9904;SDS011;4991;43.566;27.820;2023-03-23T10:16:15;0.10;;;0.10;;
9904;SDS011;4991;43.566;27.820;2023-03-23T10:18:49;7.33;;;4.43;;
9904;SDS011;4991;43.566;27.820;2023-03-23T10:21:37;0.20;;;0.20;;
9904;SDS011;4991;43.566;27.820;2023-03-23T10:24:12;0.20;;;0.20;;
9904;SDS011;4991;43.566;27.820;2023-03-23T10:29:13;0.67;;;0.67;;
9904;SDS011;4991;43.566;27.820;2023-03-23T10:31:52;0.20;;;0.20;;
9904;SDS011;4991;43.566;27.820;2023-03-23T10:34:39;0.20;;;0.20;;
9904;SDS011;4991;43.566;27.820;2023-03-23T10:37:22;0.20;;;0.20;;
9904;SDS011;4991;43.566;27.820;2023-03-23T10:39:53;0.30;;;0.30;;
9904;SDS011;4991;43.566;27.820;2023-03-23T10:42:22;0.27;;;0.27;;
9904;SDS011;4991;43.566;27.820;2023-03-23T10:45:17;0.30;;;0.30;;
9904;SDS011;4991;43.566;27.820;2023-03-23T10:47:46;0.20;;;0.20;;
9904;SDS011;4991;43.566;27.820;2023-03-23T10:50:16;0.30;;;0.30;;
9904;SDS011;4991;43.566;27.820;2023-03-23T10:52:48;0.50;;;0.50;;
9904;SDS011;4991;43.566;27.820;2023-03-23T10:55:19;0.30;;;0.30;;
9904;SDS011;4991;43.566;27.820;2023-03-23T10:58:04;0.30;;;0.30;;
9904;SDS011;4991;43.566;27.820;2023-03-23T11:00:42;0.30;;;0.30;;
9904;SDS011;4991;43.566;27.820;2023-03-23T11:08:15;0.27;;;0.27;;
9904;SDS011;4991;43.566;27.820;2023-03-23T11:10:48;0.20;;;0.20;;
9904;SDS011;4991;43.566;27.820;2023-03-23T11:13:17;0.30;;;0.30;;
9904;SDS011;4991;43.566;27.820;2023-03-23T11:15:45;0.30;;;0.30;;
9904;SDS011;4991;43.566;27.820;2023-03-23T11:18:13;0.30;;;0.30;;
9904;SDS011;4991;43.566;27.820;2023-03-23T11:20:53;0.10;;;0.10;;
9904;SDS011;4991;43.566;27.820;2023-03-23T11:23:28;0.97;;;0.97;;
9904;SDS011;4991;43.566;27.820;2023-03-23T11:28:36;0.20;;;0.20;;
9904;SDS011;4991;43.566;27.820;2023-03-23T11:31:07;0.20;;;0.20;;
9904;SDS011;4991;43.566;27.820;2023-03-23T11:36:29;0.20;;;0.20;;
9904;SDS011;4991;43.566;27.820;2023-03-23T11:38:57;0.30;;;0.30;;
9904;SDS011;4991;43.566;27.820;2023-03-23T11:41:24;0.20;;;0.20;;
9904;SDS011;4991;43.566;27.820;2023-03-23T11:43:53;0.30;;;0.30;;
9904;SDS011;4991;43.566;27.820;2023-03-23T11:49:07;0.30;;;0.30;;
9904;SDS011;4991;43.566;27.820;2023-03-23T11:51:50;0.30;;;0.30;;
9904;SDS011;4991;43.566;27.820;2023-03-23T11:56:52;0.30;;;0.30;;
9904;SDS011;4991;43.566;27.820;2023-03-23T11:59:31;0.30;;;0.30;;
9904;SDS011;4991;43.566;27.820;2023-03-23T12:04:56;0.30;;;0.30;;
9904;SDS011;4991;43.566;27.820;2023-03-23T12:07:47;0.30;;;0.30;;
9904;SDS011;4991;43.566;27.820;2023-03-23T12:13:22;0.30;;;0.30;;
9904;SDS011;4991;43.566;27.820;2023-03-23T12:23:00;0.30;;;0.30;;
9904;SDS011;4991;43.566;27.820;2023-03-23T12:31:20;0.30;;;0.30;;
9904;SDS011;4991;43.566;27.820;2023-03-23T12:42:16;0.30;;;0.30;;
9904;SDS011;4991;43.566;27.820;2023-03-23T12:44:53;0.30;;;0.30;;
9904;SDS011;4991;43.566;27.820;2023-03-23T12:50:26;0.30;;;0.30;;
9904;SDS011;4991;43.566;27.820;2023-03-23T12:55:36;1.53;;;1.43;;
9904;SDS011;4991;43.566;27.820;2023-03-23T12:58:12;0.30;;;0.30;;
9904;SDS011;4991;43.566;27.820;2023-03-23T13:05:57;0.70;;;0.70;;
9904;SDS011;4991;43.566;27.820;2023-03-23T13:11:20;26.97;;;18.07;;
9904;SDS011;4991;43.566;27.820;2023-03-23T13:13:55;24.97;;;18.07;;
9904;SDS011;4991;43.566;27.820;2023-03-23T13:26:08;22.87;;;16.80;;
9904;SDS011;4991;43.566;27.820;2023-03-23T13:28:29;32.00;;;19.77;;
9904;SDS011;4991;43.566;27.820;2023-03-23T13:33:30;26.63;;;18.13;;
9904;SDS011;4991;43.566;27.820;2023-03-23T13:36:02;19.85;;;16.60;;
9904;SDS011;4991;43.566;27.820;2023-03-23T13:38:49;38.45;;;19.80;;
9904;SDS011;4991;43.566;27.820;2023-03-23T13:41:16;22.75;;;17.55;;
9904;SDS011;4991;43.566;27.820;2023-03-23T13:43:45;17.23;;;15.30;;
9904;SDS011;4991;43.566;27.820;2023-03-23T13:46:13;17.88;;;15.63;;
9904;SDS011;4991;43.566;27.820;2023-03-23T13:49:03;20.70;;;16.65;;
9904;SDS011;4991;43.566;27.820;2023-03-23T13:56:43;18.35;;;14.32;;
9904;SDS011;4991;43.566;27.820;2023-03-23T14:01:52;21.80;;;14.32;;
9904;SDS011;4991;43.566;27.820;2023-03-23T14:04:38;17.30;;;14.83;;
9904;SDS011;4991;43.566;27.820;2023-03-23T14:07:11;16.53;;;13.53;;
9904;SDS011;4991;43.566;27.820;2023-03-23T14:09:39;18.87;;;14.93;;
9904;SDS011;4991;43.566;27.820;2023-03-23T14:12:18;20.67;;;15.03;;
9904;SDS011;4991;43.566;27.820;2023-03-23T14:14:59;27.83;;;17.47;;
9904;SDS011;4991;43.566;27.820;2023-03-23T14:17:30;23.10;;;14.57;;
9904;SDS011;4991;43.566;27.820;2023-03-23T14:19:59;18.20;;;14.63;;
9904;SDS011;4991;43.566;27.820;2023-03-23T14:22:27;19.80;;;14.87;;
9904;SDS011;4991;43.566;27.820;2023-03-23T14:25:09;23.07;;;15.63;;
9904;SDS011;4991;43.566;27.820;2023-03-23T14:27:35;20.43;;;16.50;;
9904;SDS011;4991;43.566;27.820;2023-03-23T14:30:03;22.00;;;15.40;;
9904;SDS011;4991;43.566;27.820;2023-03-23T14:32:33;18.10;;;15.10;;
9904;SDS011;4991;43.566;27.820;2023-03-23T14:35:07;20.63;;;17.27;;
9904;SDS011;4991;43.566;27.820;2023-03-23T14:37:40;20.83;;;16.30;;
9904;SDS011;4991;43.566;27.820;2023-03-23T14:40:08;21.60;;;16.30;;
9904;SDS011;4991;43.566;27.820;2023-03-23T14:42:39;19.53;;;15.17;;
9904;SDS011;4991;43.566;27.820;2023-03-23T14:45:05;19.03;;;16.13;;
9904;SDS011;4991;43.566;27.820;2023-03-23T14:50:04;27.57;;;17.17;;
9904;SDS011;4991;43.566;27.820;2023-03-23T14:52:36;23.33;;;16.13;;
9904;SDS011;4991;43.566;27.820;2023-03-23T14:55:16;18.03;;;14.83;;
9904;SDS011;4991;43.566;27.820;2023-03-23T14:57:43;20.10;;;15.73;;
9904;SDS011;4991;43.566;27.820;2023-03-23T15:00:15;23.10;;;16.33;;
9904;SDS011;4991;43.566;27.820;2023-03-23T15:02:51;22.83;;;16.40;;
9904;SDS011;4991;43.566;27.820;2023-03-23T15:05:29;20.70;;;16.33;;
9904;SDS011;4991;43.566;27.820;2023-03-23T15:08:03;21.37;;;16.47;;
9904;SDS011;4991;43.566;27.820;2023-03-23T15:10:33;26.07;;;16.80;;
9904;SDS011;4991;43.566;27.820;2023-03-23T15:12:59;21.70;;;16.80;;
9904;SDS011;4991;43.566;27.820;2023-03-23T15:15:29;21.37;;;16.30;;
9904;SDS011;4991;43.566;27.820;2023-03-23T15:17:57;20.10;;;16.10;;
9904;SDS011;4991;43.566;27.820;2023-03-23T15:20:27;20.43;;;15.50;;
9904;SDS011;4991;43.566;27.820;2023-03-23T15:23:13;21.30;;;15.27;;
9904;SDS011;4991;43.566;27.820;2023-03-23T15:25:47;24.40;;;16.50;;
9904;SDS011;4991;43.566;27.820;2023-03-23T15:28:19;25.00;;;15.30;;
9904;SDS011;4991;43.566;27.820;2023-03-23T15:30:56;24.80;;;16.10;;
9904;SDS011;4991;43.566;27.820;2023-03-23T15:33:25;25.60;;;17.07;;
9904;SDS011;4991;43.566;27.820;2023-03-23T15:35:55;26.03;;;17.87;;
9904;SDS011;4991;43.566;27.820;2023-03-23T15:38:22;26.13;;;18.27;;
9904;SDS011;4991;43.566;27.820;2023-03-23T15:40:55;30.07;;;19.00;;
9904;SDS011;4991;43.566;27.820;2023-03-23T15:45:59;29.30;;;19.10;;
9904;SDS011;4991;43.566;27.820;2023-03-23T15:48:46;28.27;;;19.23;;
9904;SDS011;4991;43.566;27.820;2023-03-23T15:51:40;25.20;;;19.47;;
9904;SDS011;4991;43.566;27.820;2023-03-23T15:54:08;30.13;;;19.70;;
9904;SDS011;4991;43.566;27.820;2023-03-23T15:56:37;23.43;;;19.63;;
9904;SDS011;4991;43.566;27.820;2023-03-23T15:59:03;53.50;;;27.33;;
9904;SDS011;4991;43.566;27.820;2023-03-23T16:01:29;28.00;;;21.20;;
9904;SDS011;4991;43.566;27.820;2023-03-23T16:03:59;36.73;;;26.37;;
9904;SDS011;4991;43.566;27.820;2023-03-23T16:06:30;49.63;;;30.00;;
9904;SDS011;4991;43.566;27.820;2023-03-23T16:08:58;43.43;;;24.47;;
9904;SDS011;4991;43.566;27.820;2023-03-23T16:11:25;51.13;;;28.77;;
9904;SDS011;4991;43.566;27.820;2023-03-23T16:13:52;45.93;;;23.73;;
9904;SDS011;4991;43.566;27.820;2023-03-23T16:16:22;36.83;;;25.20;;
9904;SDS011;4991;43.566;27.820;2023-03-23T16:18:52;30.03;;;20.47;;
9904;SDS011;4991;43.566;27.820;2023-03-23T16:21:18;27.67;;;21.77;;
9904;SDS011;4991;43.566;27.820;2023-03-23T16:23:44;43.47;;;28.57;;
9904;SDS011;4991;43.566;27.820;2023-03-23T16:26:11;50.73;;;31.50;;
9904;SDS011;4991;43.566;27.820;2023-03-23T16:28:38;39.37;;;26.97;;
9904;SDS011;4991;43.566;27.820;2023-03-23T16:31:05;45.67;;;28.77;;
9904;SDS011;4991;43.566;27.820;2023-03-23T16:33:31;31.00;;;25.53;;
9904;SDS011;4991;43.566;27.820;2023-03-23T16:35:59;31.63;;;25.00;;
9904;SDS011;4991;43.566;27.820;2023-03-23T16:38:25;32.67;;;22.80;;
9904;SDS011;4991;43.566;27.820;2023-03-23T16:40:51;53.43;;;32.73;;
9904;SDS011;4991;43.566;27.820;2023-03-23T16:43:16;47.80;;;35.30;;
9904;SDS011;4991;43.566;27.820;2023-03-23T16:45:43;54.57;;;38.33;;
9904;SDS011;4991;43.566;27.820;2023-03-23T16:48:10;65.20;;;51.77;;
9904;SDS011;4991;43.566;27.820;2023-03-23T16:50:38;48.00;;;38.30;;
9904;SDS011;4991;43.566;27.820;2023-03-23T16:53:05;54.37;;;42.53;;
9904;SDS011;4991;43.566;27.820;2023-03-23T16:55:32;76.53;;;51.53;;
9904;SDS011;4991;43.566;27.820;2023-03-23T16:57:58;61.10;;;45.13;;
9904;SDS011;4991;43.566;27.820;2023-03-23T17:00:24;64.37;;;45.20;;
9904;SDS011;4991;43.566;27.820;2023-03-23T17:02:52;62.53;;;44.43;;
9904;SDS011;4991;43.566;27.820;2023-03-23T17:05:21;72.67;;;47.43;;
9904;SDS011;4991;43.566;27.820;2023-03-23T17:07:48;67.33;;;40.93;;
9904;SDS011;4991;43.566;27.820;2023-03-23T17:10:14;45.93;;;30.13;;
9904;SDS011;4991;43.566;27.820;2023-03-23T17:12:41;46.87;;;29.70;;